sensor_id;sensor_type;location;lat;lon;timestamp;temperature;humidity
16532;DHT22;66872;63.142;14.482;2023-10-19T00:00:40;13.20;43.40
16532;DHT22;66872;63.142;14.482;2023-10-19T00:03:10;13.20;43.50
16532;DHT22;66872;63.142;14.482;2023-10-19T00:05:37;13.20;43.40
16532;DHT22;66872;63.142;14.482;2023-10-19T00:08:04;13.20;43.50
16532;DHT22;66872;63.142;14.482;2023-10-19T00:10:40;13.20;44.00
16532;DHT22;66872;63.142;14.482;2023-10-19T00:13:09;13.20;43.50
16532;DHT22;66872;63.142;14.482;2023-10-19T00:15:40;13.20;43.50
16532;DHT22;66872;63.142;14.482;2023-10-19T00:18:09;13.20;43.40
16532;DHT22;66872;63.142;14.482;2023-10-19T00:20:49;13.20;43.40
16532;DHT22;66872;63.142;14.482;2023-10-19T00:23:18;13.20;43.50
16532;DHT22;66872;63.142;14.482;2023-10-19T00:25:58;13.20;43.50
16532;DHT22;66872;63.142;14.482;2023-10-19T00:28:25;13.20;43.50
16532;DHT22;66872;63.142;14.482;2023-10-19T00:30:54;13.20;43.50
16532;DHT22;66872;63.142;14.482;2023-10-19T00:33:25;13.20;43.50
16532;DHT22;66872;63.142;14.482;2023-10-19T00:35:54;13.20;43.50
16532;DHT22;66872;63.142;14.482;2023-10-19T00:38:25;13.20;43.50
16532;DHT22;66872;63.142;14.482;2023-10-19T00:41:00;13.20;43.40
16532;DHT22;66872;63.142;14.482;2023-10-19T00:43:33;13.20;43.40
16532;DHT22;66872;63.142;14.482;2023-10-19T00:46:03;13.20;43.40
16532;DHT22;66872;63.142;14.482;2023-10-19T00:48:35;13.20;43.40
16532;DHT22;66872;63.142;14.482;2023-10-19T00:51:01;13.20;43.40
16532;DHT22;66872;63.142;14.482;2023-10-19T00:53:48;13.20;43.40
16532;DHT22;66872;63.142;14.482;2023-10-19T00:56:16;13.20;43.40
16532;DHT22;66872;63.142;14.482;2023-10-19T00:58:45;13.20;43.40
16532;DHT22;66872;63.142;14.482;2023-10-19T01:01:22;13.20;43.40
16532;DHT22;66872;63.142;14.482;2023-10-19T01:03:50;13.20;43.40
16532;DHT22;66872;63.142;14.482;2023-10-19T01:06:18;13.10;43.30
16532;DHT22;66872;63.142;14.482;2023-10-19T01:08:46;13.10;43.30
16532;DHT22;66872;63.142;14.482;2023-10-19T01:11:13;13.10;43.30
16532;DHT22;66872;63.142;14.482;2023-10-19T01:13:41;13.10;43.30
16532;DHT22;66872;63.142;14.482;2023-10-19T01:16:14;13.10;43.30
16532;DHT22;66872;63.142;14.482;2023-10-19T01:18:52;13.10;43.30
16532;DHT22;66872;63.142;14.482;2023-10-19T01:21:22;13.10;43.20
16532;DHT22;66872;63.142;14.482;2023-10-19T01:23:53;13.10;43.30
16532;DHT22;66872;63.142;14.482;2023-10-19T01:26:19;13.10;43.20
16532;DHT22;66872;63.142;14.482;2023-10-19T01:28:51;13.10;43.20
16532;DHT22;66872;63.142;14.482;2023-10-19T01:31:26;13.10;43.30
16532;DHT22;66872;63.142;14.482;2023-10-19T01:33:58;13.10;43.30
16532;DHT22;66872;63.142;14.482;2023-10-19T01:36:27;13.10;43.20
16532;DHT22;66872;63.142;14.482;2023-10-19T01:38:54;13.10;43.20
16532;DHT22;66872;63.142;14.482;2023-10-19T01:41:22;13.10;43.20
16532;DHT22;66872;63.142;14.482;2023-10-19T01:43:51;13.10;43.20
16532;DHT22;66872;63.142;14.482;2023-10-19T01:46:21;13.10;43.20
16532;DHT22;66872;63.142;14.482;2023-10-19T01:48:48;13.10;43.20
16532;DHT22;66872;63.142;14.482;2023-10-19T01:51:22;13.10;43.20
16532;DHT22;66872;63.142;14.482;2023-10-19T01:53:49;13.10;43.10
16532;DHT22;66872;63.142;14.482;2023-10-19T01:56:16;13.10;43.20
16532;DHT22;66872;63.142;14.482;2023-10-19T01:58:43;13.10;43.10
16532;DHT22;66872;63.142;14.482;2023-10-19T02:01:12;13.10;43.10
16532;DHT22;66872;63.142;14.482;2023-10-19T02:03:38;13.10;43.10
16532;DHT22;66872;63.142;14.482;2023-10-19T02:06:12;13.10;43.10
16532;DHT22;66872;63.142;14.482;2023-10-19T02:08:57;13.10;43.10
16532;DHT22;66872;63.142;14.482;2023-10-19T02:11:26;13.10;43.00
16532;DHT22;66872;63.142;14.482;2023-10-19T02:13:53;13.10;43.00
16532;DHT22;66872;63.142;14.482;2023-10-19T02:16:29;13.10;43.00
16532;DHT22;66872;63.142;14.482;2023-10-19T02:18:55;13.10;43.00
16532;DHT22;66872;63.142;14.482;2023-10-19T02:21:21;13.10;43.00
16532;DHT22;66872;63.142;14.482;2023-10-19T02:23:59;13.00;42.90
16532;DHT22;66872;63.142;14.482;2023-10-19T02:26:24;13.00;42.90
16532;DHT22;66872;63.142;14.482;2023-10-19T02:28:54;13.00;42.90
16532;DHT22;66872;63.142;14.482;2023-10-19T02:31:22;13.00;42.90
16532;DHT22;66872;63.142;14.482;2023-10-19T02:33:49;13.00;42.80
16532;DHT22;66872;63.142;14.482;2023-10-19T02:36:24;13.00;42.80
16532;DHT22;66872;63.142;14.482;2023-10-19T02:38:54;13.00;42.80
16532;DHT22;66872;63.142;14.482;2023-10-19T02:41:24;13.00;42.90
16532;DHT22;66872;63.142;14.482;2023-10-19T02:43:52;13.00;42.80
16532;DHT22;66872;63.142;14.482;2023-10-19T02:46:31;13.00;42.80
16532;DHT22;66872;63.142;14.482;2023-10-19T02:49:01;13.00;42.80
16532;DHT22;66872;63.142;14.482;2023-10-19T02:51:29;13.00;42.70
16532;DHT22;66872;63.142;14.482;2023-10-19T02:53:55;13.00;42.80
16532;DHT22;66872;63.142;14.482;2023-10-19T02:56:21;13.00;42.70
16532;DHT22;66872;63.142;14.482;2023-10-19T02:58:49;13.00;42.80
16532;DHT22;66872;63.142;14.482;2023-10-19T03:01:21;13.00;42.80
16532;DHT22;66872;63.142;14.482;2023-10-19T03:03:51;13.00;42.80
16532;DHT22;66872;63.142;14.482;2023-10-19T03:06:21;13.00;42.70
16532;DHT22;66872;63.142;14.482;2023-10-19T03:08:48;13.00;42.70
16532;DHT22;66872;63.142;14.482;2023-10-19T03:11:17;13.00;42.70
16532;DHT22;66872;63.142;14.482;2023-10-19T03:13:44;13.00;42.60
16532;DHT22;66872;63.142;14.482;2023-10-19T03:16:10;13.00;42.60
16532;DHT22;66872;63.142;14.482;2023-10-19T03:18:36;13.00;42.60
16532;DHT22;66872;63.142;14.482;2023-10-19T03:21:03;13.00;42.60
16532;DHT22;66872;63.142;14.482;2023-10-19T03:23:28;13.00;42.50
16532;DHT22;66872;63.142;14.482;2023-10-19T03:25:57;13.00;42.50
16532;DHT22;66872;63.142;14.482;2023-10-19T03:28:22;13.00;42.50
16532;DHT22;66872;63.142;14.482;2023-10-19T03:30:51;12.90;43.00
16532;DHT22;66872;63.142;14.482;2023-10-19T03:33:17;13.00;42.50
16532;DHT22;66872;63.142;14.482;2023-10-19T03:35:43;13.00;42.50
16532;DHT22;66872;63.142;14.482;2023-10-19T03:38:09;13.00;42.40
16532;DHT22;66872;63.142;14.482;2023-10-19T03:40:42;13.00;42.40
16532;DHT22;66872;63.142;14.482;2023-10-19T03:43:18;13.00;42.40
16532;DHT22;66872;63.142;14.482;2023-10-19T03:45:47;12.90;42.30
16532;DHT22;66872;63.142;14.482;2023-10-19T03:48:20;12.90;42.30
16532;DHT22;66872;63.142;14.482;2023-10-19T03:50:52;12.90;42.30
16532;DHT22;66872;63.142;14.482;2023-10-19T03:53:21;12.90;42.30
16532;DHT22;66872;63.142;14.482;2023-10-19T03:55:47;12.90;42.30
16532;DHT22;66872;63.142;14.482;2023-10-19T03:58:16;12.90;42.30
16532;DHT22;66872;63.142;14.482;2023-10-19T04:00:41;12.90;42.30
16532;DHT22;66872;63.142;14.482;2023-10-19T04:03:07;12.90;42.40
16532;DHT22;66872;63.142;14.482;2023-10-19T04:05:33;12.90;42.40
16532;DHT22;66872;63.142;14.482;2023-10-19T04:08:05;12.90;42.40
16532;DHT22;66872;63.142;14.482;2023-10-19T04:10:39;12.90;42.40
16532;DHT22;66872;63.142;14.482;2023-10-19T04:13:10;12.90;42.40
16532;DHT22;66872;63.142;14.482;2023-10-19T04:15:36;12.90;42.40
16532;DHT22;66872;63.142;14.482;2023-10-19T04:18:03;12.90;42.40
16532;DHT22;66872;63.142;14.482;2023-10-19T04:20:35;12.90;42.30
16532;DHT22;66872;63.142;14.482;2023-10-19T04:23:16;12.90;42.30
16532;DHT22;66872;63.142;14.482;2023-10-19T04:25:41;12.90;42.30
16532;DHT22;66872;63.142;14.482;2023-10-19T04:28:07;12.90;42.30
16532;DHT22;66872;63.142;14.482;2023-10-19T04:30:34;12.90;42.30
16532;DHT22;66872;63.142;14.482;2023-10-19T04:33:02;12.90;42.30
16532;DHT22;66872;63.142;14.482;2023-10-19T04:35:28;12.90;42.30
16532;DHT22;66872;63.142;14.482;2023-10-19T04:37:59;12.80;42.20
16532;DHT22;66872;63.142;14.482;2023-10-19T04:40:26;12.90;42.30
16532;DHT22;66872;63.142;14.482;2023-10-19T04:42:53;12.80;42.10
16532;DHT22;66872;63.142;14.482;2023-10-19T04:45:19;12.90;42.20
16532;DHT22;66872;63.142;14.482;2023-10-19T04:47:45;12.80;42.10
16532;DHT22;66872;63.142;14.482;2023-10-19T04:50:12;12.80;42.10
16532;DHT22;66872;63.142;14.482;2023-10-19T04:52:38;12.80;42.10
16532;DHT22;66872;63.142;14.482;2023-10-19T04:55:04;12.80;42.10
16532;DHT22;66872;63.142;14.482;2023-10-19T04:57:31;12.90;42.20
16532;DHT22;66872;63.142;14.482;2023-10-19T04:59:57;12.80;42.10
16532;DHT22;66872;63.142;14.482;2023-10-19T05:02:23;12.80;42.10
16532;DHT22;66872;63.142;14.482;2023-10-19T05:04:48;12.80;42.10
16532;DHT22;66872;63.142;14.482;2023-10-19T05:07:15;12.80;42.10
16532;DHT22;66872;63.142;14.482;2023-10-19T05:09:43;12.80;42.10
16532;DHT22;66872;63.142;14.482;2023-10-19T05:12:09;12.80;42.00
16532;DHT22;66872;63.142;14.482;2023-10-19T05:14:42;12.80;42.00
16532;DHT22;66872;63.142;14.482;2023-10-19T05:17:08;12.80;42.00
16532;DHT22;66872;63.142;14.482;2023-10-19T05:19:38;12.80;42.00
16532;DHT22;66872;63.142;14.482;2023-10-19T05:22:07;12.80;42.00
16532;DHT22;66872;63.142;14.482;2023-10-19T05:24:33;12.80;41.90
16532;DHT22;66872;63.142;14.482;2023-10-19T05:26:59;12.80;41.90
16532;DHT22;66872;63.142;14.482;2023-10-19T05:29:25;12.80;41.90
16532;DHT22;66872;63.142;14.482;2023-10-19T05:31:51;12.80;41.90
16532;DHT22;66872;63.142;14.482;2023-10-19T05:34:21;12.80;41.90
16532;DHT22;66872;63.142;14.482;2023-10-19T05:36:47;12.80;41.90
16532;DHT22;66872;63.142;14.482;2023-10-19T05:39:17;12.80;42.00
16532;DHT22;66872;63.142;14.482;2023-10-19T05:41:43;12.80;42.00
16532;DHT22;66872;63.142;14.482;2023-10-19T05:44:09;12.80;42.00
16532;DHT22;66872;63.142;14.482;2023-10-19T05:46:35;12.80;42.00
16532;DHT22;66872;63.142;14.482;2023-10-19T05:49:02;12.80;42.10
16532;DHT22;66872;63.142;14.482;2023-10-19T05:51:30;12.80;42.70
16532;DHT22;66872;63.142;14.482;2023-10-19T05:53:56;12.80;42.10
16532;DHT22;66872;63.142;14.482;2023-10-19T05:56:28;12.80;42.10
16532;DHT22;66872;63.142;14.482;2023-10-19T05:58:53;12.80;42.10
16532;DHT22;66872;63.142;14.482;2023-10-19T06:01:19;12.80;42.00
16532;DHT22;66872;63.142;14.482;2023-10-19T06:03:45;12.80;42.00
16532;DHT22;66872;63.142;14.482;2023-10-19T06:06:11;12.80;42.00
16532;DHT22;66872;63.142;14.482;2023-10-19T06:08:39;12.80;42.00
16532;DHT22;66872;63.142;14.482;2023-10-19T06:11:05;12.80;41.90
16532;DHT22;66872;63.142;14.482;2023-10-19T06:13:32;12.80;41.90
16532;DHT22;66872;63.142;14.482;2023-10-19T06:15:57;12.80;42.00
16532;DHT22;66872;63.142;14.482;2023-10-19T06:18:23;12.80;42.00
16532;DHT22;66872;63.142;14.482;2023-10-19T06:20:49;12.80;41.90
16532;DHT22;66872;63.142;14.482;2023-10-19T06:23:16;12.80;41.90
16532;DHT22;66872;63.142;14.482;2023-10-19T06:25:43;12.80;41.90
16532;DHT22;66872;63.142;14.482;2023-10-19T06:28:09;12.80;41.90
16532;DHT22;66872;63.142;14.482;2023-10-19T06:30:36;12.80;41.90
16532;DHT22;66872;63.142;14.482;2023-10-19T06:33:02;12.80;41.80
16532;DHT22;66872;63.142;14.482;2023-10-19T06:35:29;12.80;41.80
16532;DHT22;66872;63.142;14.482;2023-10-19T06:37:57;12.90;41.80
16532;DHT22;66872;63.142;14.482;2023-10-19T06:40:24;12.90;41.80
16532;DHT22;66872;63.142;14.482;2023-10-19T06:42:52;12.80;41.60
16532;DHT22;66872;63.142;14.482;2023-10-19T06:45:20;12.80;41.60
16532;DHT22;66872;63.142;14.482;2023-10-19T06:47:48;12.90;41.70
16532;DHT22;66872;63.142;14.482;2023-10-19T06:50:16;12.90;41.60
16532;DHT22;66872;63.142;14.482;2023-10-19T06:52:44;12.90;41.40
16532;DHT22;66872;63.142;14.482;2023-10-19T06:55:10;12.90;41.30
16532;DHT22;66872;63.142;14.482;2023-10-19T06:57:43;12.90;41.30
16532;DHT22;66872;63.142;14.482;2023-10-19T07:00:13;12.90;41.20
16532;DHT22;66872;63.142;14.482;2023-10-19T07:02:46;12.90;41.10
16532;DHT22;66872;63.142;14.482;2023-10-19T07:05:12;12.90;41.10
16532;DHT22;66872;63.142;14.482;2023-10-19T07:07:42;13.00;41.20
16532;DHT22;66872;63.142;14.482;2023-10-19T07:10:09;13.00;41.10
16532;DHT22;66872;63.142;14.482;2023-10-19T07:12:38;13.00;41.10
16532;DHT22;66872;63.142;14.482;2023-10-19T07:15:05;13.00;41.00
16532;DHT22;66872;63.142;14.482;2023-10-19T07:17:36;13.00;41.00
16532;DHT22;66872;63.142;14.482;2023-10-19T07:20:07;13.00;40.90
16532;DHT22;66872;63.142;14.482;2023-10-19T07:22:34;13.00;40.90
16532;DHT22;66872;63.142;14.482;2023-10-19T07:25:05;13.00;40.90
16532;DHT22;66872;63.142;14.482;2023-10-19T07:27:32;13.00;40.90
16532;DHT22;66872;63.142;14.482;2023-10-19T07:29:59;13.00;40.90
16532;DHT22;66872;63.142;14.482;2023-10-19T07:32:25;13.10;41.00
16532;DHT22;66872;63.142;14.482;2023-10-19T07:34:50;13.10;41.00
16532;DHT22;66872;63.142;14.482;2023-10-19T07:37:16;13.10;40.90
16532;DHT22;66872;63.142;14.482;2023-10-19T07:39:46;13.10;40.90
16532;DHT22;66872;63.142;14.482;2023-10-19T07:42:12;13.10;40.90
16532;DHT22;66872;63.142;14.482;2023-10-19T07:44:38;13.10;40.90
16532;DHT22;66872;63.142;14.482;2023-10-19T07:47:03;13.10;40.80
16532;DHT22;66872;63.142;14.482;2023-10-19T07:49:29;13.10;40.80
16532;DHT22;66872;63.142;14.482;2023-10-19T07:51:56;13.10;40.80
16532;DHT22;66872;63.142;14.482;2023-10-19T07:54:22;13.10;40.70
16532;DHT22;66872;63.142;14.482;2023-10-19T07:56:48;13.10;40.80
16532;DHT22;66872;63.142;14.482;2023-10-19T07:59:15;13.10;40.80
16532;DHT22;66872;63.142;14.482;2023-10-19T08:01:41;13.20;40.80
16532;DHT22;66872;63.142;14.482;2023-10-19T08:04:07;13.20;40.70
16532;DHT22;66872;63.142;14.482;2023-10-19T08:06:33;13.20;40.70
16532;DHT22;66872;63.142;14.482;2023-10-19T08:08:58;13.20;40.70
16532;DHT22;66872;63.142;14.482;2023-10-19T08:11:25;13.20;40.60
16532;DHT22;66872;63.142;14.482;2023-10-19T08:13:51;13.20;40.60
16532;DHT22;66872;63.142;14.482;2023-10-19T08:16:16;13.20;41.20
16532;DHT22;66872;63.142;14.482;2023-10-19T08:18:43;13.30;40.60
16532;DHT22;66872;63.142;14.482;2023-10-19T08:21:09;13.30;40.50
16532;DHT22;66872;63.142;14.482;2023-10-19T08:23:34;13.30;40.50
16532;DHT22;66872;63.142;14.482;2023-10-19T08:26:00;13.30;40.50
16532;DHT22;66872;63.142;14.482;2023-10-19T08:28:28;13.30;40.40
16532;DHT22;66872;63.142;14.482;2023-10-19T08:30:54;13.40;40.40
16532;DHT22;66872;63.142;14.482;2023-10-19T08:33:23;13.40;40.40
16532;DHT22;66872;63.142;14.482;2023-10-19T08:35:52;13.40;40.30
16532;DHT22;66872;63.142;14.482;2023-10-19T08:38:19;13.40;40.20
16532;DHT22;66872;63.142;14.482;2023-10-19T08:40:45;13.50;40.20
16532;DHT22;66872;63.142;14.482;2023-10-19T08:43:12;13.50;40.10
16532;DHT22;66872;63.142;14.482;2023-10-19T08:45:44;13.60;40.10
16532;DHT22;66872;63.142;14.482;2023-10-19T08:48:10;13.60;39.90
16532;DHT22;66872;63.142;14.482;2023-10-19T08:50:36;13.70;39.80
16532;DHT22;66872;63.142;14.482;2023-10-19T08:53:04;13.70;39.70
16532;DHT22;66872;63.142;14.482;2023-10-19T08:55:31;13.80;39.70
16532;DHT22;66872;63.142;14.482;2023-10-19T08:57:57;13.80;39.60
16532;DHT22;66872;63.142;14.482;2023-10-19T09:00:25;13.80;39.50
16532;DHT22;66872;63.142;14.482;2023-10-19T09:02:53;13.90;39.40
16532;DHT22;66872;63.142;14.482;2023-10-19T09:05:19;13.90;39.40
16532;DHT22;66872;63.142;14.482;2023-10-19T09:07:52;13.90;39.30
16532;DHT22;66872;63.142;14.482;2023-10-19T09:10:25;14.00;39.30
16532;DHT22;66872;63.142;14.482;2023-10-19T09:13:04;14.00;39.30
16532;DHT22;66872;63.142;14.482;2023-10-19T09:15:33;14.00;39.10
16532;DHT22;66872;63.142;14.482;2023-10-19T09:18:16;14.10;39.10
16532;DHT22;66872;63.142;14.482;2023-10-19T09:20:46;14.00;39.00
16532;DHT22;66872;63.142;14.482;2023-10-19T09:23:22;14.00;39.00
16532;DHT22;66872;63.142;14.482;2023-10-19T09:25:52;14.00;39.00
16532;DHT22;66872;63.142;14.482;2023-10-19T09:28:21;14.10;39.10
16532;DHT22;66872;63.142;14.482;2023-10-19T09:30:49;14.10;39.10
16532;DHT22;66872;63.142;14.482;2023-10-19T09:33:17;14.00;39.10
16532;DHT22;66872;63.142;14.482;2023-10-19T09:35:46;14.00;39.10
16532;DHT22;66872;63.142;14.482;2023-10-19T09:38:17;14.00;39.10
16532;DHT22;66872;63.142;14.482;2023-10-19T09:40:50;14.00;39.10
16532;DHT22;66872;63.142;14.482;2023-10-19T09:43:34;14.00;39.20
16532;DHT22;66872;63.142;14.482;2023-10-19T09:46:02;14.00;39.20
16532;DHT22;66872;63.142;14.482;2023-10-19T09:48:31;14.00;39.20
16532;DHT22;66872;63.142;14.482;2023-10-19T09:51:01;14.00;39.20
16532;DHT22;66872;63.142;14.482;2023-10-19T09:53:29;14.00;39.20
16532;DHT22;66872;63.142;14.482;2023-10-19T09:56:00;14.00;39.20
16532;DHT22;66872;63.142;14.482;2023-10-19T09:58:44;13.90;39.10
16532;DHT22;66872;63.142;14.482;2023-10-19T10:01:10;14.00;39.20
16532;DHT22;66872;63.142;14.482;2023-10-19T10:03:51;13.90;39.10
16532;DHT22;66872;63.142;14.482;2023-10-19T10:06:27;13.90;39.20
16532;DHT22;66872;63.142;14.482;2023-10-19T10:08:54;13.90;39.20
16532;DHT22;66872;63.142;14.482;2023-10-19T10:11:25;13.90;39.20
16532;DHT22;66872;63.142;14.482;2023-10-19T10:13:58;13.90;39.10
16532;DHT22;66872;63.142;14.482;2023-10-19T10:16:28;13.90;39.10
16532;DHT22;66872;63.142;14.482;2023-10-19T10:18:57;13.90;39.10
16532;DHT22;66872;63.142;14.482;2023-10-19T10:21:26;13.90;39.10
16532;DHT22;66872;63.142;14.482;2023-10-19T10:23:54;13.90;39.10
16532;DHT22;66872;63.142;14.482;2023-10-19T10:26:22;13.90;39.10
16532;DHT22;66872;63.142;14.482;2023-10-19T10:31:44;13.90;39.10
16532;DHT22;66872;63.142;14.482;2023-10-19T10:34:12;13.90;39.00
16532;DHT22;66872;63.142;14.482;2023-10-19T10:37:07;13.90;39.00
16532;DHT22;66872;63.142;14.482;2023-10-19T10:39:34;13.90;39.10
16532;DHT22;66872;63.142;14.482;2023-10-19T10:42:07;13.90;39.10
16532;DHT22;66872;63.142;14.482;2023-10-19T10:44:46;14.00;39.20
16532;DHT22;66872;63.142;14.482;2023-10-19T10:47:20;14.00;39.20
16532;DHT22;66872;63.142;14.482;2023-10-19T10:49:55;14.00;39.10
16532;DHT22;66872;63.142;14.482;2023-10-19T10:52:28;14.00;39.10
16532;DHT22;66872;63.142;14.482;2023-10-19T10:55:15;14.00;39.00
16532;DHT22;66872;63.142;14.482;2023-10-19T10:57:41;14.00;39.00
16532;DHT22;66872;63.142;14.482;2023-10-19T11:00:09;14.00;39.00
16532;DHT22;66872;63.142;14.482;2023-10-19T11:02:38;14.00;39.00
16532;DHT22;66872;63.142;14.482;2023-10-19T11:05:08;14.10;39.10
16532;DHT22;66872;63.142;14.482;2023-10-19T11:07:37;14.00;38.90
16532;DHT22;66872;63.142;14.482;2023-10-19T11:10:03;14.10;39.00
16532;DHT22;66872;63.142;14.482;2023-10-19T11:12:29;14.00;39.00
16532;DHT22;66872;63.142;14.482;2023-10-19T11:15:00;14.00;39.00
16532;DHT22;66872;63.142;14.482;2023-10-19T11:17:28;14.00;39.00
16532;DHT22;66872;63.142;14.482;2023-10-19T11:19:58;14.00;38.90
16532;DHT22;66872;63.142;14.482;2023-10-19T11:22:25;14.00;38.90
16532;DHT22;66872;63.142;14.482;2023-10-19T11:24:52;14.00;39.00
16532;DHT22;66872;63.142;14.482;2023-10-19T11:27:28;14.00;38.90
16532;DHT22;66872;63.142;14.482;2023-10-19T11:29:58;14.00;38.90
16532;DHT22;66872;63.142;14.482;2023-10-19T11:32:25;14.00;39.00
16532;DHT22;66872;63.142;14.482;2023-10-19T11:34:54;14.00;39.00
16532;DHT22;66872;63.142;14.482;2023-10-19T11:37:22;13.90;38.90
16532;DHT22;66872;63.142;14.482;2023-10-19T11:39:47;13.90;39.00
16532;DHT22;66872;63.142;14.482;2023-10-19T11:42:17;13.90;39.00
16532;DHT22;66872;63.142;14.482;2023-10-19T11:44:44;13.90;39.00
16532;DHT22;66872;63.142;14.482;2023-10-19T11:47:10;13.90;39.00
16532;DHT22;66872;63.142;14.482;2023-10-19T11:49:36;13.90;39.10
16532;DHT22;66872;63.142;14.482;2023-10-19T11:52:05;13.90;39.10
16532;DHT22;66872;63.142;14.482;2023-10-19T11:54:35;13.90;39.20
16532;DHT22;66872;63.142;14.482;2023-10-19T11:57:02;13.90;39.10
16532;DHT22;66872;63.142;14.482;2023-10-19T11:59:27;13.90;39.20
16532;DHT22;66872;63.142;14.482;2023-10-19T12:01:53;13.90;39.20
16532;DHT22;66872;63.142;14.482;2023-10-19T12:04:20;13.90;39.30
16532;DHT22;66872;63.142;14.482;2023-10-19T12:06:45;13.80;39.20
16532;DHT22;66872;63.142;14.482;2023-10-19T12:09:12;13.90;39.30
16532;DHT22;66872;63.142;14.482;2023-10-19T12:11:41;13.80;39.20
16532;DHT22;66872;63.142;14.482;2023-10-19T12:14:06;13.90;39.30
16532;DHT22;66872;63.142;14.482;2023-10-19T12:16:37;13.80;39.20
16532;DHT22;66872;63.142;14.482;2023-10-19T12:19:05;13.90;39.30
16532;DHT22;66872;63.142;14.482;2023-10-19T12:21:30;13.80;39.20
16532;DHT22;66872;63.142;14.482;2023-10-19T12:23:56;13.80;39.20
16532;DHT22;66872;63.142;14.482;2023-10-19T12:26:24;13.80;39.20
16532;DHT22;66872;63.142;14.482;2023-10-19T12:28:50;13.80;39.20
16532;DHT22;66872;63.142;14.482;2023-10-19T12:31:16;13.80;39.20
16532;DHT22;66872;63.142;14.482;2023-10-19T12:33:44;13.80;39.20
16532;DHT22;66872;63.142;14.482;2023-10-19T12:36:10;13.80;39.30
16532;DHT22;66872;63.142;14.482;2023-10-19T12:38:54;13.80;39.20
16532;DHT22;66872;63.142;14.482;2023-10-19T12:41:20;13.80;39.30
16532;DHT22;66872;63.142;14.482;2023-10-19T12:43:47;13.80;39.30
16532;DHT22;66872;63.142;14.482;2023-10-19T12:46:16;13.80;39.30
16532;DHT22;66872;63.142;14.482;2023-10-19T12:48:42;13.80;39.30
16532;DHT22;66872;63.142;14.482;2023-10-19T12:51:08;13.80;39.30
16532;DHT22;66872;63.142;14.482;2023-10-19T12:53:37;13.80;39.30
16532;DHT22;66872;63.142;14.482;2023-10-19T12:56:07;13.80;39.30
16532;DHT22;66872;63.142;14.482;2023-10-19T12:58:35;13.80;39.30
16532;DHT22;66872;63.142;14.482;2023-10-19T13:01:02;13.80;39.30
16532;DHT22;66872;63.142;14.482;2023-10-19T13:03:30;13.80;39.30
16532;DHT22;66872;63.142;14.482;2023-10-19T13:05:57;13.80;39.30
16532;DHT22;66872;63.142;14.482;2023-10-19T13:08:24;13.80;39.30
16532;DHT22;66872;63.142;14.482;2023-10-19T13:10:53;13.80;39.40
16532;DHT22;66872;63.142;14.482;2023-10-19T13:13:19;13.80;39.40
16532;DHT22;66872;63.142;14.482;2023-10-19T13:15:48;13.80;39.40
16532;DHT22;66872;63.142;14.482;2023-10-19T13:18:14;13.80;39.40
16532;DHT22;66872;63.142;14.482;2023-10-19T13:20:46;13.80;39.50
16532;DHT22;66872;63.142;14.482;2023-10-19T13:23:14;13.80;39.50
16532;DHT22;66872;63.142;14.482;2023-10-19T13:25:47;13.70;39.40
16532;DHT22;66872;63.142;14.482;2023-10-19T13:28:20;13.70;39.50
16532;DHT22;66872;63.142;14.482;2023-10-19T13:30:51;13.70;39.50
16532;DHT22;66872;63.142;14.482;2023-10-19T13:33:19;13.80;39.60
16532;DHT22;66872;63.142;14.482;2023-10-19T13:35:47;13.70;39.50
16532;DHT22;66872;63.142;14.482;2023-10-19T13:38:15;13.70;39.50
16532;DHT22;66872;63.142;14.482;2023-10-19T13:40:41;13.70;39.60
16532;DHT22;66872;63.142;14.482;2023-10-19T13:43:09;13.70;39.50
16532;DHT22;66872;63.142;14.482;2023-10-19T13:45:40;13.70;39.50
16532;DHT22;66872;63.142;14.482;2023-10-19T13:48:07;13.80;39.60
16532;DHT22;66872;63.142;14.482;2023-10-19T13:50:34;13.70;39.50
16532;DHT22;66872;63.142;14.482;2023-10-19T13:53:00;13.70;39.50
16532;DHT22;66872;63.142;14.482;2023-10-19T13:55:31;13.70;39.50
16532;DHT22;66872;63.142;14.482;2023-10-19T13:57:57;13.70;39.50
16532;DHT22;66872;63.142;14.482;2023-10-19T14:00:24;13.80;39.70
16532;DHT22;66872;63.142;14.482;2023-10-19T14:03:01;13.70;39.60
16532;DHT22;66872;63.142;14.482;2023-10-19T14:05:28;13.70;39.60
16532;DHT22;66872;63.142;14.482;2023-10-19T14:07:55;13.70;39.60
16532;DHT22;66872;63.142;14.482;2023-10-19T14:10:21;13.70;39.70
16532;DHT22;66872;63.142;14.482;2023-10-19T14:12:48;13.70;39.70
16532;DHT22;66872;63.142;14.482;2023-10-19T14:15:18;13.70;39.70
16532;DHT22;66872;63.142;14.482;2023-10-19T14:17:46;13.70;39.80
16532;DHT22;66872;63.142;14.482;2023-10-19T14:20:13;13.70;39.80
16532;DHT22;66872;63.142;14.482;2023-10-19T14:22:43;13.70;39.80
16532;DHT22;66872;63.142;14.482;2023-10-19T14:25:11;13.70;39.90
16532;DHT22;66872;63.142;14.482;2023-10-19T14:27:44;13.70;39.90
16532;DHT22;66872;63.142;14.482;2023-10-19T14:30:12;13.70;39.90
16532;DHT22;66872;63.142;14.482;2023-10-19T14:32:40;13.70;39.90
16532;DHT22;66872;63.142;14.482;2023-10-19T14:35:10;13.60;39.90
16532;DHT22;66872;63.142;14.482;2023-10-19T14:37:41;13.60;39.90
16532;DHT22;66872;63.142;14.482;2023-10-19T14:42:36;13.60;39.90
16532;DHT22;66872;63.142;14.482;2023-10-19T14:45:07;13.60;39.90
16532;DHT22;66872;63.142;14.482;2023-10-19T14:47:35;13.60;39.90
16532;DHT22;66872;63.142;14.482;2023-10-19T14:50:02;13.60;39.90
16532;DHT22;66872;63.142;14.482;2023-10-19T14:52:27;13.60;39.90
16532;DHT22;66872;63.142;14.482;2023-10-19T14:54:53;13.60;39.90
16532;DHT22;66872;63.142;14.482;2023-10-19T14:57:19;13.60;39.90
16532;DHT22;66872;63.142;14.482;2023-10-19T14:59:44;13.60;39.90
16532;DHT22;66872;63.142;14.482;2023-10-19T15:02:10;13.60;39.90
16532;DHT22;66872;63.142;14.482;2023-10-19T15:04:38;13.60;39.90
16532;DHT22;66872;63.142;14.482;2023-10-19T15:07:04;13.60;39.90
16532;DHT22;66872;63.142;14.482;2023-10-19T15:09:30;13.60;40.00
16532;DHT22;66872;63.142;14.482;2023-10-19T15:11:56;13.50;40.00
16532;DHT22;66872;63.142;14.482;2023-10-19T15:14:22;13.50;40.00
16532;DHT22;66872;63.142;14.482;2023-10-19T15:16:48;13.50;40.00
16532;DHT22;66872;63.142;14.482;2023-10-19T15:19:14;13.50;40.00
16532;DHT22;66872;63.142;14.482;2023-10-19T15:21:44;13.50;40.10
16532;DHT22;66872;63.142;14.482;2023-10-19T15:24:10;13.50;40.10
16532;DHT22;66872;63.142;14.482;2023-10-19T15:26:38;13.50;40.10
16532;DHT22;66872;63.142;14.482;2023-10-19T15:29:04;13.50;40.10